createdAt,value
2015-09-21T00:00:11.593Z,99702
2015-09-21T00:00:29.952Z,99708
2015-09-21T00:00:48.296Z,99702
2015-09-21T00:01:06.657Z,99703
2015-09-21T00:01:25.017Z,99702
2015-09-21T00:01:43.501Z,99705
2015-09-21T00:02:01.862Z,99708
2015-09-21T00:02:20.222Z,99708
2015-09-21T00:02:38.581Z,99708
2015-09-21T00:02:56.941Z,99694
2015-09-21T00:03:15.301Z,99697
2015-09-21T00:03:33.676Z,99697
2015-09-21T00:03:52.051Z,99700
2015-09-21T00:04:10.382Z,99694
2015-09-21T00:04:28.741Z,99700
2015-09-21T00:04:47.101Z,99691
2015-09-21T00:05:05.447Z,99697
2015-09-21T00:05:23.806Z,99705
2015-09-21T00:05:42.165Z,99703
2015-09-21T00:06:00.509Z,99694
2015-09-21T00:06:18.870Z,99700
2015-09-21T00:06:37.230Z,99700
2015-09-21T00:06:54.933Z,99697
2015-09-21T00:07:13.294Z,99694
2015-09-21T00:07:31.497Z,99691
2015-09-21T00:07:49.857Z,99688
2015-09-21T00:08:08.203Z,99700
2015-09-21T00:08:26.687Z,99697
2015-09-21T00:08:45.046Z,99688
2015-09-21T00:09:03.406Z,99694
2015-09-21T00:09:21.767Z,99697
2015-09-21T00:09:40.111Z,99688
2015-09-21T00:09:58.470Z,99691
2015-09-21T00:10:16.832Z,99694
2015-09-21T00:10:35.175Z,99686
2015-09-21T00:10:53.535Z,99688
2015-09-21T00:11:11.240Z,99702
2015-09-21T00:11:29.599Z,99691
2015-09-21T00:11:47.959Z,99700
2015-09-21T00:12:06.302Z,99683
2015-09-21T00:12:24.663Z,99691
2015-09-21T00:12:43.022Z,99683
2015-09-21T00:13:00.725Z,99688
2015-09-21T00:13:19.071Z,99686
2015-09-21T00:13:37.446Z,99686
2015-09-21T00:13:55.790Z,99688
2015-09-21T00:14:14.151Z,99691
2015-09-21T00:14:32.510Z,99686
2015-09-21T00:14:50.854Z,99688
2015-09-21T00:15:09.214Z,99683
2015-09-21T00:15:27.575Z,99694
2015-09-21T00:15:45.934Z,99691
2015-09-21T00:16:04.294Z,99694
2015-09-21T00:16:22.655Z,99671
2015-09-21T00:16:40.999Z,99680
2015-09-21T00:16:59.202Z,99694
2015-09-21T00:17:17.563Z,99694
2015-09-21T00:17:35.923Z,99688
2015-09-21T00:17:54.282Z,99688
2015-09-21T00:18:12.641Z,99694
2015-09-21T00:18:30.987Z,99688
2015-09-21T00:18:49.347Z,99691
2015-09-21T00:19:07.847Z,99691
2015-09-21T00:19:26.208Z,99688
2015-09-21T00:19:44.567Z,99691
2015-09-21T00:20:02.927Z,99691
2015-09-21T00:20:21.288Z,99688
2015-09-21T00:20:39.632Z,99688
2015-09-21T00:20:57.991Z,99688
2015-09-21T00:21:16.351Z,99688
2015-09-21T00:21:34.712Z,99686
2015-09-21T00:21:53.071Z,99677
2015-09-21T00:22:11.431Z,99683
2015-09-21T00:22:29.776Z,99691
2015-09-21T00:22:48.136Z,99688
2015-09-21T00:23:06.495Z,99688
2015-09-21T00:23:24.857Z,99683
2015-09-21T00:23:43.216Z,99680
2015-09-21T00:24:01.575Z,99683
2015-09-21T00:24:19.280Z,99680
2015-09-21T00:24:37.640Z,99683
2015-09-21T00:24:55.999Z,99680
2015-09-21T00:25:14.343Z,99680
2015-09-21T00:25:32.704Z,99683
2015-09-21T00:25:51.064Z,99688
2015-09-21T00:26:09.407Z,99683
2015-09-21T00:26:27.768Z,99686
2015-09-21T00:26:46.127Z,99680
2015-09-21T00:27:04.487Z,99683
2015-09-21T00:27:22.848Z,99680
2015-09-21T00:27:41.207Z,99683
2015-09-21T00:27:59.567Z,99674
2015-09-21T00:28:17.910Z,99674
2015-09-21T00:28:36.273Z,99686
2015-09-21T00:28:54.632Z,99680
2015-09-21T00:29:12.335Z,99688
2015-09-21T00:29:30.696Z,99683
2015-09-21T00:29:49.055Z,99686
2015-09-21T00:30:07.414Z,99683
2015-09-21T00:30:25.760Z,99683
2015-09-21T00:30:44.120Z,99680
2015-09-21T00:31:02.479Z,99686
2015-09-21T00:31:20.838Z,99680
2015-09-21T00:31:39.200Z,99683
2015-09-21T00:31:57.559Z,99691
2015-09-21T00:32:15.903Z,99677
2015-09-21T00:32:34.264Z,99683
2015-09-21T00:32:52.624Z,99680
2015-09-21T00:33:10.983Z,99674
2015-09-21T00:33:29.344Z,99680
2015-09-21T00:33:47.704Z,99683
2015-09-21T00:34:06.063Z,99688
2015-09-21T00:34:24.422Z,99671
2015-09-21T00:34:42.128Z,99680
2015-09-21T00:35:00.471Z,99680
2015-09-21T00:35:18.831Z,99677
2015-09-21T00:35:37.192Z,99677
2015-09-21T00:35:55.551Z,99680
2015-09-21T00:36:13.911Z,99680
2015-09-21T00:36:32.257Z,99686
2015-09-21T00:36:50.616Z,99680
2015-09-21T00:37:08.975Z,99677
2015-09-21T00:37:27.335Z,99671
2015-09-21T00:37:45.695Z,99671
2015-09-21T00:38:04.039Z,99674
2015-09-21T00:38:22.258Z,99677
2015-09-21T00:38:40.620Z,99677
2015-09-21T00:38:58.964Z,99674
2015-09-21T00:39:17.323Z,99671
2015-09-21T00:39:35.683Z,99674
2015-09-21T00:39:54.043Z,99677
2015-09-21T00:40:12.402Z,99671
2015-09-21T00:40:30.762Z,99677
2015-09-21T00:40:49.123Z,99669
2015-09-21T00:41:07.482Z,99677
2015-09-21T00:41:25.842Z,99666
2015-09-21T00:41:44.187Z,99674
2015-09-21T00:42:02.547Z,99666
2015-09-21T00:42:20.906Z,99666
2015-09-21T00:42:39.268Z,99666
2015-09-21T00:42:57.627Z,99671
2015-09-21T00:43:15.986Z,99671
2015-09-21T00:43:34.330Z,99674
2015-09-21T00:43:52.692Z,99674
2015-09-21T00:44:11.052Z,99666
2015-09-21T00:44:29.411Z,99666
2015-09-21T00:44:47.772Z,99671
2015-09-21T00:45:06.131Z,99666
2015-09-21T00:45:24.490Z,99674
2015-09-21T00:45:42.852Z,99674
2015-09-21T00:46:01.196Z,99677
2015-09-21T00:46:19.556Z,99669
2015-09-21T00:46:37.917Z,99674
2015-09-21T00:46:56.277Z,99677
2015-09-21T00:47:14.636Z,99683
2015-09-21T00:47:32.995Z,99677
2015-09-21T00:47:51.357Z,99674
2015-09-21T00:48:09.700Z,99677
2015-09-21T00:48:28.060Z,99674
2015-09-21T00:48:46.421Z,99674
2015-09-21T00:49:04.124Z,99674
2015-09-21T00:49:22.484Z,99674
2015-09-21T00:49:40.876Z,99663
2015-09-21T00:49:59.220Z,99674
2015-09-21T00:50:17.564Z,99677
2015-09-21T00:50:35.923Z,99677
2015-09-21T00:50:54.285Z,99669
2015-09-21T00:51:12.644Z,99671
2015-09-21T00:51:31.003Z,99683
2015-09-21T00:51:49.365Z,99671
2015-09-21T00:52:07.708Z,99683
2015-09-21T00:52:26.068Z,99674
2015-09-21T00:52:44.429Z,99677
2015-09-21T00:53:02.789Z,99663
2015-09-21T00:53:21.148Z,99666
2015-09-21T00:53:39.507Z,99674
2015-09-21T00:53:57.869Z,99674
2015-09-21T00:54:16.228Z,99677
2015-09-21T00:54:34.572Z,99674
2015-09-21T00:54:52.933Z,99680
2015-09-21T00:55:11.293Z,99666
2015-09-21T00:55:29.652Z,99669
2015-09-21T00:55:48.138Z,99666
2015-09-21T00:56:06.498Z,99669
2015-09-21T00:56:24.857Z,99663
2015-09-21T00:56:43.201Z,99669
2015-09-21T00:57:01.562Z,99669
2015-09-21T00:57:19.765Z,99674
2015-09-21T00:57:38.125Z,99677
2015-09-21T00:57:56.485Z,99683
2015-09-21T00:58:14.844Z,99674
2015-09-21T00:58:33.204Z,99669
2015-09-21T00:58:51.550Z,99677
2015-09-21T00:59:09.909Z,99669
2015-09-21T00:59:28.268Z,99669
2015-09-21T00:59:46.628Z,99669
2015-09-21T01:00:04.989Z,99663
2015-09-21T01:00:23.348Z,99669
2015-09-21T01:00:41.708Z,99674
2015-09-21T01:00:59.398Z,99666
2015-09-21T01:01:17.758Z,99671
2015-09-21T01:01:36.117Z,99671
2015-09-21T01:01:54.477Z,99669
2015-09-21T01:02:12.181Z,99666
2015-09-21T01:02:30.540Z,99677
2015-09-21T01:02:48.899Z,99666
2015-09-21T01:03:07.262Z,99671
2015-09-21T01:03:25.605Z,99669
2015-09-21T01:03:43.965Z,99666
2015-09-21T01:04:01.669Z,99674
2015-09-21T01:04:20.028Z,99669
2015-09-21T01:04:38.388Z,99660
2015-09-21T01:04:56.750Z,99671
2015-09-21T01:05:15.109Z,99669
2015-09-21T01:05:33.469Z,99669
2015-09-21T01:05:51.828Z,99669
2015-09-21T01:06:10.189Z,99669
2015-09-21T01:06:28.548Z,99677
2015-09-21T01:06:46.907Z,99663
2015-09-21T01:07:05.253Z,99666
2015-09-21T01:07:22.956Z,99666
2015-09-21T01:07:41.316Z,99669
2015-09-21T01:07:59.022Z,99669
2015-09-21T01:08:17.365Z,99674
2015-09-21T01:08:35.725Z,99669
2015-09-21T01:08:54.084Z,99669
2015-09-21T01:09:12.445Z,99671
2015-09-21T01:09:30.148Z,99671
2015-09-21T01:09:48.507Z,99669
2015-09-21T01:10:06.868Z,99674
2015-09-21T01:10:25.212Z,99669
2015-09-21T01:10:43.572Z,99663
2015-09-21T01:11:01.933Z,99666
2015-09-21T01:11:20.292Z,99671
2015-09-21T01:11:38.652Z,99666
2015-09-21T01:11:57.011Z,99666
2015-09-21T01:12:15.372Z,99663
2015-09-21T01:12:33.732Z,99666
2015-09-21T01:12:52.091Z,99663
2015-09-21T01:13:10.468Z,99663
2015-09-21T01:13:28.812Z,99663
2015-09-21T01:13:47.156Z,99666
2015-09-21T01:14:05.516Z,99666
2015-09-21T01:14:23.875Z,99663
2015-09-21T01:14:42.235Z,99666
2015-09-21T01:14:59.938Z,99663
2015-09-21T01:15:18.300Z,99666
2015-09-21T01:15:36.660Z,99663
2015-09-21T01:15:55.019Z,99669
2015-09-21T01:16:13.364Z,99663
2015-09-21T01:16:31.723Z,99669
2015-09-21T01:16:50.083Z,99660
2015-09-21T01:17:08.445Z,99663
2015-09-21T01:17:26.804Z,99652
2015-09-21T01:17:45.164Z,99660
2015-09-21T01:18:03.523Z,99663
2015-09-21T01:18:21.868Z,99663
2015-09-21T01:18:40.227Z,99652
2015-09-21T01:18:58.587Z,99666
2015-09-21T01:19:16.949Z,99657
2015-09-21T01:19:34.496Z,99663
2015-09-21T01:19:52.855Z,99660
2015-09-21T01:20:11.216Z,99649
2015-09-21T01:20:29.559Z,99647
2015-09-21T01:20:47.919Z,99657
2015-09-21T01:21:06.278Z,99649
2015-09-21T01:21:24.639Z,99660
2015-09-21T01:21:42.999Z,99657
2015-09-21T01:22:01.358Z,99654
2015-09-21T01:22:19.720Z,99666
2015-09-21T01:22:38.095Z,99654
2015-09-21T01:22:56.423Z,99654
2015-09-21T01:23:14.785Z,99654
2015-09-21T01:23:33.129Z,99657
2015-09-21T01:23:51.488Z,99654
2015-09-21T01:24:09.850Z,99654
2015-09-21T01:24:28.053Z,99654
2015-09-21T01:24:46.412Z,99657
2015-09-21T01:25:04.771Z,99652
2015-09-21T01:25:23.117Z,99657
2015-09-21T01:25:41.477Z,99660
2015-09-21T01:25:59.836Z,99654
2015-09-21T01:26:18.197Z,99657
2015-09-21T01:26:36.557Z,99657
2015-09-21T01:26:54.916Z,99641
2015-09-21T01:27:13.261Z,99652
2015-09-21T01:27:31.620Z,99660
2015-09-21T01:27:49.323Z,99657
2015-09-21T01:28:07.683Z,99660
2015-09-21T01:28:26.044Z,99647
2015-09-21T01:28:44.403Z,99654
2015-09-21T01:29:02.763Z,99649
2015-09-21T01:29:21.124Z,99654
2015-09-21T01:29:39.468Z,99654
2015-09-21T01:29:57.827Z,99649
2015-09-21T01:30:16.189Z,99657
2015-09-21T01:30:34.548Z,99644
2015-09-21T01:30:52.907Z,99649
2015-09-21T01:31:11.267Z,99644
2015-09-21T01:31:29.613Z,99644
2015-09-21T01:31:47.972Z,99641
2015-09-21T01:32:06.331Z,99649
2015-09-21T01:32:24.693Z,99647
2015-09-21T01:32:43.052Z,99641
2015-09-21T01:33:01.411Z,99644
2015-09-21T01:33:19.757Z,99647
2015-09-21T01:33:38.117Z,99647
2015-09-21T01:33:56.476Z,99652
2015-09-21T01:34:14.835Z,99647
2015-09-21T01:34:33.197Z,99647
2015-09-21T01:34:51.556Z,99644
2015-09-21T01:35:09.915Z,99641
2015-09-21T01:35:28.261Z,99641
2015-09-21T01:35:46.621Z,99641
2015-09-21T01:36:04.980Z,99644
2015-09-21T01:36:23.466Z,99647
2015-09-21T01:36:41.826Z,99647
2015-09-21T01:36:59.529Z,99630
2015-09-21T01:37:17.888Z,99641
2015-09-21T01:37:36.250Z,99644
2015-09-21T01:37:54.609Z,99636
2015-09-21T01:38:12.968Z,99636
2015-09-21T01:38:31.314Z,99638
2015-09-21T01:38:49.673Z,99630
2015-09-21T01:39:08.033Z,99641
2015-09-21T01:39:25.737Z,99644
2015-09-21T01:39:44.096Z,99644
2015-09-21T01:40:02.440Z,99644
2015-09-21T01:40:20.799Z,99649
2015-09-21T01:40:39.162Z,99647
2015-09-21T01:40:57.521Z,99636
2015-09-21T01:41:15.881Z,99633
2015-09-21T01:41:34.241Z,99644
2015-09-21T01:41:52.585Z,99630
2015-09-21T01:42:10.944Z,99647
2015-09-21T01:42:29.305Z,99630
2015-09-21T01:42:47.649Z,99641
2015-09-21T01:43:06.009Z,99636
2015-09-21T01:43:24.368Z,99636
2015-09-21T01:43:42.746Z,99644
2015-09-21T01:44:01.090Z,99633
2015-09-21T01:44:19.433Z,99638
2015-09-21T01:44:37.794Z,99641
2015-09-21T01:44:55.497Z,99636
2015-09-21T01:45:13.856Z,99641
2015-09-21T01:45:32.219Z,99636
2015-09-21T01:45:50.578Z,99633
2015-09-21T01:46:08.922Z,99636
2015-09-21T01:46:27.281Z,99633
2015-09-21T01:46:45.642Z,99641
2015-09-21T01:47:02.688Z,99627
2015-09-21T01:47:21.048Z,99621
2015-09-21T01:47:39.409Z,99630
2015-09-21T01:47:57.769Z,99630
2015-09-21T01:48:16.128Z,99630
2015-09-21T01:48:34.489Z,99633
2015-09-21T01:48:52.849Z,99630
2015-09-21T01:49:10.552Z,99630
2015-09-21T01:49:28.896Z,99621
2015-09-21T01:49:47.273Z,99624
2015-09-21T01:50:05.632Z,99621
2015-09-21T01:50:23.976Z,99613
2015-09-21T01:50:42.337Z,99624
2015-09-21T01:51:00.696Z,99624
2015-09-21T01:51:19.056Z,99624
2015-09-21T01:51:37.417Z,99627
2015-09-21T01:51:55.777Z,99624
2015-09-21T01:52:14.120Z,99619
2015-09-21T01:52:32.480Z,99621
2015-09-21T01:52:50.841Z,99619
2015-09-21T01:53:09.200Z,99613
2015-09-21T01:53:27.560Z,99607
2015-09-21T01:53:45.921Z,99619
2015-09-21T01:54:04.281Z,99610
2015-09-21T01:54:22.640Z,99613
2015-09-21T01:54:41.001Z,99610
2015-09-21T01:54:59.345Z,99610
2015-09-21T01:55:17.704Z,99616
2015-09-21T01:55:35.410Z,99621
2015-09-21T01:55:53.769Z,99604
2015-09-21T01:56:12.128Z,99619
2015-09-21T01:56:30.488Z,99613
2015-09-21T01:56:48.848Z,99607
2015-09-21T01:57:07.207Z,99604
2015-09-21T01:57:25.551Z,99613
2015-09-21T01:57:43.914Z,99599
2015-09-21T01:58:02.273Z,99610
2015-09-21T01:58:20.632Z,99602
2015-09-21T01:58:38.994Z,99613
2015-09-21T01:58:57.369Z,99610
2015-09-21T01:59:15.697Z,99613
2015-09-21T01:59:34.056Z,99599
2015-09-21T01:59:52.417Z,99607
2015-09-21T02:00:10.776Z,99602
2015-09-21T02:00:29.135Z,99607
2015-09-21T02:00:46.826Z,99613
2015-09-21T02:01:05.185Z,99607
2015-09-21T02:01:23.545Z,99610
2015-09-21T02:01:41.905Z,99613
2015-09-21T02:02:00.264Z,99613
2015-09-21T02:02:17.967Z,99596
2015-09-21T02:02:36.327Z,99604
2015-09-21T02:02:54.813Z,99610
2015-09-21T02:03:13.173Z,99610
2015-09-21T02:03:31.532Z,99602
2015-09-21T02:03:49.893Z,99607
2015-09-21T02:04:08.253Z,99604
2015-09-21T02:04:26.612Z,99602
2015-09-21T02:04:44.973Z,99602
2015-09-21T02:05:03.317Z,99599
2015-09-21T02:05:21.020Z,99604
2015-09-21T02:05:39.380Z,99602
2015-09-21T02:05:57.741Z,99602
2015-09-21T02:06:16.100Z,99604
2015-09-21T02:06:34.460Z,99599
2015-09-21T02:06:52.821Z,99602
2015-09-21T02:07:11.165Z,99604
2015-09-21T02:07:29.524Z,99610
2015-09-21T02:07:47.886Z,99602
2015-09-21T02:08:06.245Z,99610
2015-09-21T02:08:24.604Z,99604
2015-09-21T02:08:42.964Z,99599
2015-09-21T02:09:01.325Z,99610
2015-09-21T02:09:19.685Z,99596
2015-09-21T02:09:37.388Z,99599
2015-09-21T02:09:55.732Z,99613
2015-09-21T02:10:14.107Z,99613
2015-09-21T02:10:32.451Z,99602
2015-09-21T02:10:50.813Z,99602
2015-09-21T02:11:09.172Z,99604
2015-09-21T02:11:27.531Z,99604
2015-09-21T02:11:45.891Z,99613
2015-09-21T02:12:04.237Z,99602
2015-09-21T02:12:22.597Z,99604
2015-09-21T02:12:40.956Z,99610
2015-09-21T02:12:58.661Z,99602
2015-09-21T02:13:17.021Z,99602
2015-09-21T02:13:35.380Z,99610
2015-09-21T02:13:53.726Z,99602
2015-09-21T02:14:12.085Z,99613
2015-09-21T02:14:30.445Z,99602
2015-09-21T02:14:48.804Z,99602
2015-09-21T02:15:07.289Z,99602
2015-09-21T02:15:25.649Z,99602
2015-09-21T02:15:43.992Z,99602
2015-09-21T02:16:02.370Z,99602
2015-09-21T02:16:20.714Z,99602
2015-09-21T02:16:38.417Z,99593
2015-09-21T02:16:56.779Z,99599
2015-09-21T02:17:14.482Z,99602
2015-09-21T02:17:32.841Z,99590
2015-09-21T02:17:51.201Z,99596
2015-09-21T02:18:09.562Z,99599
2015-09-21T02:18:27.921Z,99602
2015-09-21T02:18:45.624Z,99593
2015-09-21T02:19:03.986Z,99596
2015-09-21T02:19:22.330Z,99599
2015-09-21T02:19:40.048Z,99596
2015-09-21T02:19:58.394Z,99599
2015-09-21T02:20:16.753Z,99593
2015-09-21T02:20:35.113Z,99599
2015-09-21T02:20:53.473Z,99582
2015-09-21T02:21:11.833Z,99596
2015-09-21T02:21:30.176Z,99585
2015-09-21T02:21:48.536Z,99599
2015-09-21T02:22:07.038Z,99596
2015-09-21T02:22:25.397Z,99590
2015-09-21T02:22:43.741Z,99599
2015-09-21T02:23:02.102Z,99599
2015-09-21T02:23:20.462Z,99596
2015-09-21T02:23:38.821Z,99596
2015-09-21T02:23:57.167Z,99587
2015-09-21T02:24:15.526Z,99593
2015-09-21T02:24:33.885Z,99593
2015-09-21T02:24:52.245Z,99593
2015-09-21T02:25:10.606Z,99585
2015-09-21T02:25:28.950Z,99593
2015-09-21T02:25:47.309Z,99587
2015-09-21T02:26:05.514Z,99585
2015-09-21T02:26:23.874Z,99590
2015-09-21T02:26:42.233Z,99602
2015-09-21T02:27:00.595Z,99590
2015-09-21T02:27:18.954Z,99579
2015-09-21T02:27:37.313Z,99590
2015-09-21T02:27:55.673Z,99596
2015-09-21T02:28:14.018Z,99587
2015-09-21T02:28:32.378Z,99585
2015-09-21T02:28:50.737Z,99585
2015-09-21T02:29:09.099Z,99585
2015-09-21T02:29:27.302Z,99585
2015-09-21T02:29:45.677Z,99585
2015-09-21T02:30:04.022Z,99585
2015-09-21T02:30:22.366Z,99585
2015-09-21T02:30:40.726Z,99590
2015-09-21T02:30:59.085Z,99587
2015-09-21T02:31:17.446Z,99585
2015-09-21T02:31:35.806Z,99585
2015-09-21T02:31:54.165Z,99585
2015-09-21T02:32:12.511Z,99579
2015-09-21T02:32:30.870Z,99579
2015-09-21T02:32:49.230Z,99568
2015-09-21T02:33:07.591Z,99576
2015-09-21T02:33:25.950Z,99568
2015-09-21T02:33:44.310Z,99576
2015-09-21T02:34:02.669Z,99573
2015-09-21T02:34:21.015Z,99573
2015-09-21T02:34:39.374Z,99573
2015-09-21T02:34:57.093Z,99573
2015-09-21T02:35:15.438Z,99568
2015-09-21T02:35:33.797Z,99573
2015-09-21T02:35:52.281Z,99579
2015-09-21T02:36:10.644Z,99568
2015-09-21T02:36:29.003Z,99573
2015-09-21T02:36:47.347Z,99562
2015-09-21T02:37:05.706Z,99568
2015-09-21T02:37:24.068Z,99557
2015-09-21T02:37:42.427Z,99568
2015-09-21T02:38:00.786Z,99570
2015-09-21T02:38:19.147Z,99573
2015-09-21T02:38:37.491Z,99573
2015-09-21T02:38:55.850Z,99573
2015-09-21T02:39:14.211Z,99557
2015-09-21T02:39:32.571Z,99568
2015-09-21T02:39:50.930Z,99568
2015-09-21T02:40:09.276Z,99562
2015-09-21T02:40:26.979Z,99573
2015-09-21T02:40:45.338Z,99562
2015-09-21T02:41:03.041Z,99573
2015-09-21T02:41:20.747Z,99568
2015-09-21T02:41:39.106Z,99570
2015-09-21T02:41:57.450Z,99562
2015-09-21T02:42:15.811Z,99565
2015-09-21T02:42:34.155Z,99551
2015-09-21T02:42:52.514Z,99565
2015-09-21T02:43:10.874Z,99557
2015-09-21T02:43:29.236Z,99562
2015-09-21T02:43:47.595Z,99568
2015-09-21T02:44:05.955Z,99557
2015-09-21T02:44:24.315Z,99549
2015-09-21T02:44:42.659Z,99568
2015-09-21T02:45:01.018Z,99565
2015-09-21T02:45:19.380Z,99573
2015-09-21T02:45:37.723Z,99570
2015-09-21T02:45:56.083Z,99573
2015-09-21T02:46:14.460Z,99562
2015-09-21T02:46:32.803Z,99570
2015-09-21T02:46:51.163Z,99568
2015-09-21T02:47:09.522Z,99568
2015-09-21T02:47:27.884Z,99557
2015-09-21T02:47:46.227Z,99565
2015-09-21T02:48:03.930Z,99570
2015-09-21T02:48:22.292Z,99570
2015-09-21T02:48:40.651Z,99576
2015-09-21T02:48:59.011Z,99565
2015-09-21T02:49:17.356Z,99562
2015-09-21T02:49:35.716Z,99568
2015-09-21T02:49:54.075Z,99568
2015-09-21T02:50:12.434Z,99576
2015-09-21T02:50:30.796Z,99568
2015-09-21T02:50:49.155Z,99573
2015-09-21T02:51:07.515Z,99565
2015-09-21T02:51:25.860Z,99576
2015-09-21T02:51:44.220Z,99565
2015-09-21T02:52:02.579Z,99573
2015-09-21T02:52:20.938Z,99565
2015-09-21T02:52:39.300Z,99570
2015-09-21T02:52:57.644Z,99568
2015-09-21T02:53:16.003Z,99568
2015-09-21T02:53:34.364Z,99568
2015-09-21T02:53:52.708Z,99565
2015-09-21T02:54:11.083Z,99568
2015-09-21T02:54:29.429Z,99570
2015-09-21T02:54:47.788Z,99579
2015-09-21T02:55:06.148Z,99573
2015-09-21T02:55:24.507Z,99565
2015-09-21T02:55:42.853Z,99568
2015-09-21T02:56:01.212Z,99573
2015-09-21T02:56:19.571Z,99557
2015-09-21T02:56:37.932Z,99565
2015-09-21T02:56:56.291Z,99562
2015-09-21T02:57:14.651Z,99557
2015-09-21T02:57:32.996Z,99565
2015-09-21T02:57:51.356Z,99570
2015-09-21T02:58:09.715Z,99565
2015-09-21T02:58:28.074Z,99554
2015-09-21T02:58:46.436Z,99557
2015-09-21T02:59:04.780Z,99570
2015-09-21T02:59:23.170Z,99557
2015-09-21T02:59:41.501Z,99565
2015-09-21T02:59:59.861Z,99565
2015-09-21T03:00:18.204Z,99546
2015-09-21T03:00:36.566Z,99565
2015-09-21T03:00:54.269Z,99568
2015-09-21T03:01:12.628Z,99565
2015-09-21T03:01:30.989Z,99570
2015-09-21T03:01:48.692Z,99565
2015-09-21T03:02:07.051Z,99565
2015-09-21T03:02:24.754Z,99554
2015-09-21T03:02:43.100Z,99554
2015-09-21T03:03:01.459Z,99573
2015-09-21T03:03:19.819Z,99568
2015-09-21T03:03:38.180Z,99565
2015-09-21T03:03:56.540Z,99562
2015-09-21T03:04:14.883Z,99557
2015-09-21T03:04:32.604Z,99570
2015-09-21T03:04:50.948Z,99568
2015-09-21T03:05:09.307Z,99557
2015-09-21T03:05:27.682Z,99557
2015-09-21T03:05:46.044Z,99570
2015-09-21T03:06:04.387Z,99557
2015-09-21T03:06:22.747Z,99562
2015-09-21T03:06:41.092Z,99573
2015-09-21T03:06:59.452Z,99568
2015-09-21T03:07:17.811Z,99576
2015-09-21T03:07:36.173Z,99557
2015-09-21T03:07:54.376Z,99557
2015-09-21T03:08:12.079Z,99565
2015-09-21T03:08:30.438Z,99570
2015-09-21T03:08:48.799Z,99576
2015-09-21T03:09:07.158Z,99565
2015-09-21T03:09:25.502Z,99565
2015-09-21T03:09:43.895Z,99565
2015-09-21T03:10:02.380Z,99565
2015-09-21T03:10:20.739Z,99573
2015-09-21T03:10:39.100Z,99570
2015-09-21T03:10:57.460Z,99576
2015-09-21T03:11:15.819Z,99565
2015-09-21T03:11:34.179Z,99570
2015-09-21T03:11:52.523Z,99568
2015-09-21T03:12:10.883Z,99565
2015-09-21T03:12:29.242Z,99573
2015-09-21T03:12:47.604Z,99568
2015-09-21T03:13:05.964Z,99562
2015-09-21T03:13:24.323Z,99565
2015-09-21T03:13:42.685Z,99570
2015-09-21T03:14:01.044Z,99557
2015-09-21T03:14:19.388Z,99562
2015-09-21T03:14:37.747Z,99554
2015-09-21T03:14:56.124Z,99551
2015-09-21T03:15:14.468Z,99557
2015-09-21T03:15:32.171Z,99551
2015-09-21T03:15:50.531Z,99551
2015-09-21T03:16:08.891Z,99554
2015-09-21T03:16:27.234Z,99551
2015-09-21T03:16:45.597Z,99551
2015-09-21T03:17:03.956Z,99551
2015-09-21T03:17:22.316Z,99562
2015-09-21T03:17:40.675Z,99565
2015-09-21T03:17:59.021Z,99549
2015-09-21T03:18:17.380Z,99551
2015-09-21T03:18:35.739Z,99549
2015-09-21T03:18:54.101Z,99540
2015-09-21T03:19:12.460Z,99546
2015-09-21T03:19:30.820Z,99546
2015-09-21T03:19:49.180Z,99546
2015-09-21T03:20:07.539Z,99543
2015-09-21T03:20:25.899Z,99543
2015-09-21T03:20:43.586Z,99554
2015-09-21T03:21:01.949Z,99551
2015-09-21T03:21:19.652Z,99551
2015-09-21T03:21:38.027Z,99543
2015-09-21T03:21:56.371Z,99543
2015-09-21T03:22:14.731Z,99551
2015-09-21T03:22:33.106Z,99549
2015-09-21T03:22:51.453Z,99549
2015-09-21T03:23:09.812Z,99554
2015-09-21T03:23:28.156Z,99543
2015-09-21T03:23:46.515Z,99549
2015-09-21T03:24:04.876Z,99549
2015-09-21T03:24:23.236Z,99540
2015-09-21T03:24:41.595Z,99537
2015-09-21T03:24:59.956Z,99537
2015-09-21T03:25:18.315Z,99543
2015-09-21T03:25:36.674Z,99540
2015-09-21T03:25:55.020Z,99543
2015-09-21T03:26:13.379Z,99543
2015-09-21T03:26:31.739Z,99543
2015-09-21T03:26:50.083Z,99540
2015-09-21T03:27:08.445Z,99543
2015-09-21T03:27:26.804Z,99537
2015-09-21T03:27:45.164Z,99546
2015-09-21T03:28:03.524Z,99549
2015-09-21T03:28:21.883Z,99543
2015-09-21T03:28:40.243Z,99543
2015-09-21T03:28:58.604Z,99546
2015-09-21T03:29:16.964Z,99529
2015-09-21T03:29:35.307Z,99534
2015-09-21T03:29:53.667Z,99546
2015-09-21T03:30:12.028Z,99540
2015-09-21T03:30:33.825Z,99540
2015-09-21T03:30:51.856Z,99540
2015-09-21T03:31:10.218Z,99534
2015-09-21T03:31:28.421Z,99549
2015-09-21T03:31:45.468Z,99540
2015-09-21T03:32:03.673Z,99534
2015-09-21T03:32:22.032Z,99537
2015-09-21T03:32:40.391Z,99540
2015-09-21T03:32:58.752Z,99546
2015-09-21T03:33:17.236Z,99540
2015-09-21T03:33:35.596Z,99540
2015-09-21T03:33:53.955Z,99546
2015-09-21T03:34:12.316Z,99546
2015-09-21T03:34:30.676Z,99537
2015-09-21T03:34:49.019Z,99540
2015-09-21T03:35:07.382Z,99537
2015-09-21T03:35:25.741Z,99540
2015-09-21T03:35:43.444Z,99534
2015-09-21T03:36:01.805Z,99537
2015-09-21T03:36:20.148Z,99529
2015-09-21T03:36:38.508Z,99540
2015-09-21T03:36:56.867Z,99534
2015-09-21T03:37:15.229Z,99537
2015-09-21T03:37:33.588Z,99540
2015-09-21T03:37:51.932Z,99534
2015-09-21T03:38:10.293Z,99532
2015-09-21T03:38:28.496Z,99529
2015-09-21T03:38:46.871Z,99529
2015-09-21T03:39:05.217Z,99529
2015-09-21T03:39:23.576Z,99532
2015-09-21T03:39:41.936Z,99532
2015-09-21T03:40:00.279Z,99534
2015-09-21T03:40:18.642Z,99532
2015-09-21T03:40:37.001Z,99532
2015-09-21T03:40:55.361Z,99532
2015-09-21T03:41:13.705Z,99532
2015-09-21T03:41:32.065Z,99529
2015-09-21T03:41:50.424Z,99523
2015-09-21T03:42:08.785Z,99529
2015-09-21T03:42:27.145Z,99523
2015-09-21T03:42:45.504Z,99532
2015-09-21T03:43:03.848Z,99529
2015-09-21T03:43:22.225Z,99529
2015-09-21T03:43:40.709Z,99515
2015-09-21T03:43:59.069Z,99520
2015-09-21T03:44:17.415Z,99529
2015-09-21T03:44:35.621Z,99523
2015-09-21T03:44:53.825Z,99526
2015-09-21T03:45:12.044Z,99523
2015-09-21T03:45:30.249Z,99517
2015-09-21T03:45:48.453Z,99529
2015-09-21T03:46:07.930Z,99520
2015-09-21T03:46:25.932Z,99523
2015-09-21T03:46:44.104Z,99523
2015-09-21T03:47:02.463Z,99523
2015-09-21T03:47:20.668Z,99529
2015-09-21T03:47:38.903Z,99520
2015-09-21T03:47:58.176Z,99512
2015-09-21T03:48:16.724Z,99517
2015-09-21T03:48:34.787Z,99517
2015-09-21T03:48:53.146Z,99526
2015-09-21T03:49:11.507Z,99523
2015-09-21T03:49:29.867Z,99523
2015-09-21T03:49:48.211Z,99517
2015-09-21T03:50:06.570Z,99526
2015-09-21T03:50:24.274Z,99523
2015-09-21T03:50:42.633Z,99529
2015-09-21T03:51:00.993Z,99517
2015-09-21T03:51:19.370Z,99523
2015-09-21T03:51:37.073Z,99509
2015-09-21T03:51:55.432Z,99517
2015-09-21T03:52:13.826Z,99517
2015-09-21T03:52:32.143Z,99523
2015-09-21T03:52:50.503Z,99515
2015-09-21T03:53:08.815Z,99515
2015-09-21T03:53:26.958Z,99523
2015-09-21T03:53:45.317Z,99523
2015-09-21T03:54:03.677Z,99520
2015-09-21T03:54:22.038Z,99526
2015-09-21T03:54:40.397Z,99520
2015-09-21T03:54:58.741Z,99529
2015-09-21T03:55:17.102Z,99515
2015-09-21T03:55:35.462Z,99520
2015-09-21T03:55:53.821Z,99523